sensor_id;sensor_type;location;lat;lon;timestamp;temperature;humidity
9371;DHT22;4725;48.384;8.984;2023-04-01T00:01:31;6.60;99.90
9371;DHT22;4725;48.384;8.984;2023-04-01T00:03:58;6.50;99.90
9371;DHT22;4725;48.384;8.984;2023-04-01T00:06:27;6.50;99.90
9371;DHT22;4725;48.384;8.984;2023-04-01T00:08:54;6.50;99.90
9371;DHT22;4725;48.384;8.984;2023-04-01T00:13:49;6.60;99.90
9371;DHT22;4725;48.384;8.984;2023-04-01T00:16:16;6.60;99.90
9371;DHT22;4725;48.384;8.984;2023-04-01T00:18:43;6.60;99.90
9371;DHT22;4725;48.384;8.984;2023-04-01T00:21:12;6.60;99.90
9371;DHT22;4725;48.384;8.984;2023-04-01T00:26:07;6.70;99.90
9371;DHT22;4725;48.384;8.984;2023-04-01T00:31:05;6.70;99.90
9371;DHT22;4725;48.384;8.984;2023-04-01T00:33:32;6.60;99.90
9371;DHT22;4725;48.384;8.984;2023-04-01T00:36:06;6.60;99.90
9371;DHT22;4725;48.384;8.984;2023-04-01T00:38:33;6.60;99.90
9371;DHT22;4725;48.384;8.984;2023-04-01T00:41:00;6.60;99.90
9371;DHT22;4725;48.384;8.984;2023-04-01T00:43:27;6.50;99.90
9371;DHT22;4725;48.384;8.984;2023-04-01T00:45:56;6.50;99.90
9371;DHT22;4725;48.384;8.984;2023-04-01T00:48:26;6.50;99.90
9371;DHT22;4725;48.384;8.984;2023-04-01T00:50:57;6.40;99.90
9371;DHT22;4725;48.384;8.984;2023-04-01T00:53:24;6.40;99.90
9371;DHT22;4725;48.384;8.984;2023-04-01T00:55:55;6.40;99.90
9371;DHT22;4725;48.384;8.984;2023-04-01T00:58:26;6.30;99.90
9371;DHT22;4725;48.384;8.984;2023-04-01T01:00:56;6.30;99.90
9371;DHT22;4725;48.384;8.984;2023-04-01T01:03:24;6.30;99.90
9371;DHT22;4725;48.384;8.984;2023-04-01T01:06:04;6.30;99.90
9371;DHT22;4725;48.384;8.984;2023-04-01T01:08:44;6.30;99.90
9371;DHT22;4725;48.384;8.984;2023-04-01T01:11:14;6.30;99.90
9371;DHT22;4725;48.384;8.984;2023-04-01T01:13:48;6.30;99.90
9371;DHT22;4725;48.384;8.984;2023-04-01T01:16:26;6.20;99.90
9371;DHT22;4725;48.384;8.984;2023-04-01T01:18:57;6.20;99.90
9371;DHT22;4725;48.384;8.984;2023-04-01T01:24:49;6.10;99.90
9371;DHT22;4725;48.384;8.984;2023-04-01T01:27:20;6.10;99.90
9371;DHT22;4725;48.384;8.984;2023-04-01T01:29:59;6.10;99.90
9371;DHT22;4725;48.384;8.984;2023-04-01T01:32:55;6.00;99.90
9371;DHT22;4725;48.384;8.984;2023-04-01T01:35:30;6.00;99.90
9371;DHT22;4725;48.384;8.984;2023-04-01T01:38:00;6.10;99.90
9371;DHT22;4725;48.384;8.984;2023-04-01T01:40:30;6.10;99.90
9371;DHT22;4725;48.384;8.984;2023-04-01T01:42:59;6.20;99.90
9371;DHT22;4725;48.384;8.984;2023-04-01T01:45:29;6.20;99.90
9371;DHT22;4725;48.384;8.984;2023-04-01T01:47:57;6.20;99.90
9371;DHT22;4725;48.384;8.984;2023-04-01T01:50:27;6.10;99.90
9371;DHT22;4725;48.384;8.984;2023-04-01T01:53:03;6.10;99.90
9371;DHT22;4725;48.384;8.984;2023-04-01T01:55:32;6.00;99.90
9371;DHT22;4725;48.384;8.984;2023-04-01T01:58:03;5.90;99.90
9371;DHT22;4725;48.384;8.984;2023-04-01T02:00:33;5.90;99.90
9371;DHT22;4725;48.384;8.984;2023-04-01T02:05:30;5.90;99.90
9371;DHT22;4725;48.384;8.984;2023-04-01T02:08:01;6.00;99.90
9371;DHT22;4725;48.384;8.984;2023-04-01T02:10:32;5.90;99.90
9371;DHT22;4725;48.384;8.984;2023-04-01T02:13:05;5.90;99.90
9371;DHT22;4725;48.384;8.984;2023-04-01T02:15:38;5.90;99.90
9371;DHT22;4725;48.384;8.984;2023-04-01T02:18:07;5.90;99.90
9371;DHT22;4725;48.384;8.984;2023-04-01T02:20:37;5.90;99.90
9371;DHT22;4725;48.384;8.984;2023-04-01T02:23:06;5.90;99.90
9371;DHT22;4725;48.384;8.984;2023-04-01T02:25:35;5.90;99.90
9371;DHT22;4725;48.384;8.984;2023-04-01T02:28:05;5.90;99.90
9371;DHT22;4725;48.384;8.984;2023-04-01T02:30:34;5.90;99.90
9371;DHT22;4725;48.384;8.984;2023-04-01T02:33:03;5.80;99.90
9371;DHT22;4725;48.384;8.984;2023-04-01T02:35:30;5.80;99.90
9371;DHT22;4725;48.384;8.984;2023-04-01T02:38:00;5.80;99.90
9371;DHT22;4725;48.384;8.984;2023-04-01T02:40:27;5.70;99.90
9371;DHT22;4725;48.384;8.984;2023-04-01T02:45:21;5.60;99.90
9371;DHT22;4725;48.384;8.984;2023-04-01T02:47:48;5.60;99.90
9371;DHT22;4725;48.384;8.984;2023-04-01T02:52:42;5.50;99.90
9371;DHT22;4725;48.384;8.984;2023-04-01T02:55:10;7.60;99.90
9371;DHT22;4725;48.384;8.984;2023-04-01T02:57:37;5.40;99.90
9371;DHT22;4725;48.384;8.984;2023-04-01T03:00:05;5.40;99.90
9371;DHT22;4725;48.384;8.984;2023-04-01T03:02:37;5.40;99.90
9371;DHT22;4725;48.384;8.984;2023-04-01T03:05:04;5.30;99.90
9371;DHT22;4725;48.384;8.984;2023-04-01T03:07:32;5.30;99.90
9371;DHT22;4725;48.384;8.984;2023-04-01T03:09:59;5.30;99.90
9371;DHT22;4725;48.384;8.984;2023-04-01T03:17:22;5.20;99.90
9371;DHT22;4725;48.384;8.984;2023-04-01T03:19:48;5.20;99.90
9371;DHT22;4725;48.384;8.984;2023-04-01T03:22:15;5.10;99.90
9371;DHT22;4725;48.384;8.984;2023-04-01T03:24:44;4.90;99.90
9371;DHT22;4725;48.384;8.984;2023-04-01T03:27:11;4.80;99.90
9371;DHT22;4725;48.384;8.984;2023-04-01T03:29:39;4.80;99.90
9371;DHT22;4725;48.384;8.984;2023-04-01T03:32:06;4.70;99.90
9371;DHT22;4725;48.384;8.984;2023-04-01T03:34:33;4.70;99.90
9371;DHT22;4725;48.384;8.984;2023-04-01T03:39:27;4.70;99.90
9371;DHT22;4725;48.384;8.984;2023-04-01T03:41:54;4.80;99.90
9371;DHT22;4725;48.384;8.984;2023-04-01T03:44:21;4.80;99.90
9371;DHT22;4725;48.384;8.984;2023-04-01T03:46:50;4.80;99.90
9371;DHT22;4725;48.384;8.984;2023-04-01T03:49:17;4.80;99.90
9371;DHT22;4725;48.384;8.984;2023-04-01T03:51:44;4.90;99.90
9371;DHT22;4725;48.384;8.984;2023-04-01T03:54:11;4.80;99.90
9371;DHT22;4725;48.384;8.984;2023-04-01T03:56:38;4.90;99.90
9371;DHT22;4725;48.384;8.984;2023-04-01T03:59:06;4.80;99.90
9371;DHT22;4725;48.384;8.984;2023-04-01T04:01:33;4.80;99.90
9371;DHT22;4725;48.384;8.984;2023-04-01T04:04:02;4.80;99.90
9371;DHT22;4725;48.384;8.984;2023-04-01T04:06:30;4.70;99.90
9371;DHT22;4725;48.384;8.984;2023-04-01T04:08:57;4.80;99.90
9371;DHT22;4725;48.384;8.984;2023-04-01T04:11:24;4.80;99.90
9371;DHT22;4725;48.384;8.984;2023-04-01T04:13:51;4.80;99.90
9371;DHT22;4725;48.384;8.984;2023-04-01T04:16:18;4.80;99.90
9371;DHT22;4725;48.384;8.984;2023-04-01T04:18:45;4.80;99.90
9371;DHT22;4725;48.384;8.984;2023-04-01T04:21:14;4.90;99.90
9371;DHT22;4725;48.384;8.984;2023-04-01T04:23:41;5.10;99.90
9371;DHT22;4725;48.384;8.984;2023-04-01T04:26:10;5.10;99.90
9371;DHT22;4725;48.384;8.984;2023-04-01T04:28:37;5.20;99.90
9371;DHT22;4725;48.384;8.984;2023-04-01T04:31:03;5.20;99.90
9371;DHT22;4725;48.384;8.984;2023-04-01T04:33:32;5.20;99.90
9371;DHT22;4725;48.384;8.984;2023-04-01T04:35:59;5.30;99.90
9371;DHT22;4725;48.384;8.984;2023-04-01T04:38:28;5.30;99.90
9371;DHT22;4725;48.384;8.984;2023-04-01T04:40:55;5.20;99.90
9371;DHT22;4725;48.384;8.984;2023-04-01T04:43:22;5.30;99.90
9371;DHT22;4725;48.384;8.984;2023-04-01T04:45:49;5.30;99.90
9371;DHT22;4725;48.384;8.984;2023-04-01T04:48:17;5.40;99.90
9371;DHT22;4725;48.384;8.984;2023-04-01T04:50:46;5.30;99.90
9371;DHT22;4725;48.384;8.984;2023-04-01T04:53:14;5.40;99.90
9371;DHT22;4725;48.384;8.984;2023-04-01T04:58:11;5.30;99.90
9371;DHT22;4725;48.384;8.984;2023-04-01T05:00:38;5.30;99.90
9371;DHT22;4725;48.384;8.984;2023-04-01T05:03:05;5.20;99.90
9371;DHT22;4725;48.384;8.984;2023-04-01T05:10:26;5.40;99.90
9371;DHT22;4725;48.384;8.984;2023-04-01T05:12:54;5.40;99.90
9371;DHT22;4725;48.384;8.984;2023-04-01T05:15:21;5.40;99.90
9371;DHT22;4725;48.384;8.984;2023-04-01T05:17:48;5.40;99.90
9371;DHT22;4725;48.384;8.984;2023-04-01T05:20:15;5.50;99.90
9371;DHT22;4725;48.384;8.984;2023-04-01T05:22:42;5.50;99.90
9371;DHT22;4725;48.384;8.984;2023-04-01T05:25:09;7.10;99.90
9371;DHT22;4725;48.384;8.984;2023-04-01T05:27:36;5.60;99.90
9371;DHT22;4725;48.384;8.984;2023-04-01T05:30:06;7.10;99.90
9371;DHT22;4725;48.384;8.984;2023-04-01T05:32:33;5.60;99.90
9371;DHT22;4725;48.384;8.984;2023-04-01T05:35:00;5.60;99.90
9371;DHT22;4725;48.384;8.984;2023-04-01T05:37:27;5.60;99.90
9371;DHT22;4725;48.384;8.984;2023-04-01T05:39:53;5.70;99.90
9371;DHT22;4725;48.384;8.984;2023-04-01T05:42:20;5.80;99.90
9371;DHT22;4725;48.384;8.984;2023-04-01T05:44:47;5.80;99.90
9371;DHT22;4725;48.384;8.984;2023-04-01T05:47:15;5.90;99.90
9371;DHT22;4725;48.384;8.984;2023-04-01T05:49:42;5.90;99.90
9371;DHT22;4725;48.384;8.984;2023-04-01T05:52:09;5.90;99.90
9371;DHT22;4725;48.384;8.984;2023-04-01T05:54:36;6.00;99.90
9371;DHT22;4725;48.384;8.984;2023-04-01T05:59:30;6.10;99.90
9371;DHT22;4725;48.384;8.984;2023-04-01T06:04:31;6.10;99.90
9371;DHT22;4725;48.384;8.984;2023-04-01T06:06:59;6.20;99.90
9371;DHT22;4725;48.384;8.984;2023-04-01T06:09:28;6.20;99.90
9371;DHT22;4725;48.384;8.984;2023-04-01T06:12:23;6.20;99.90
9371;DHT22;4725;48.384;8.984;2023-04-01T06:14:57;6.20;99.90
9371;DHT22;4725;48.384;8.984;2023-04-01T06:17:39;6.20;99.90
9371;DHT22;4725;48.384;8.984;2023-04-01T06:20:14;6.20;99.90
9371;DHT22;4725;48.384;8.984;2023-04-01T06:23:06;6.30;99.90
9371;DHT22;4725;48.384;8.984;2023-04-01T06:25:49;5.30;99.90
9371;DHT22;4725;48.384;8.984;2023-04-01T06:31:18;6.40;99.90
9371;DHT22;4725;48.384;8.984;2023-04-01T06:33:57;6.40;99.90
9371;DHT22;4725;48.384;8.984;2023-04-01T06:36:50;6.50;99.90
9371;DHT22;4725;48.384;8.984;2023-04-01T06:39:51;6.50;99.90
9371;DHT22;4725;48.384;8.984;2023-04-01T06:42:32;6.50;99.90
9371;DHT22;4725;48.384;8.984;2023-04-01T06:45:11;6.50;99.90
9371;DHT22;4725;48.384;8.984;2023-04-01T06:47:53;6.60;99.90
9371;DHT22;4725;48.384;8.984;2023-04-01T06:50:24;6.60;99.90
9371;DHT22;4725;48.384;8.984;2023-04-01T06:53:00;6.70;99.90
9371;DHT22;4725;48.384;8.984;2023-04-01T06:55:36;6.80;99.90
9371;DHT22;4725;48.384;8.984;2023-04-01T06:58:11;6.80;99.90
9371;DHT22;4725;48.384;8.984;2023-04-01T07:00:43;6.80;99.90
9371;DHT22;4725;48.384;8.984;2023-04-01T07:03:18;6.80;99.90
9371;DHT22;4725;48.384;8.984;2023-04-01T07:05:47;6.80;99.90
9371;DHT22;4725;48.384;8.984;2023-04-01T07:08:18;6.80;99.90
9371;DHT22;4725;48.384;8.984;2023-04-01T07:10:50;6.90;99.90
9371;DHT22;4725;48.384;8.984;2023-04-01T07:13:20;6.90;99.90
9371;DHT22;4725;48.384;8.984;2023-04-01T07:15:56;7.10;99.90
9371;DHT22;4725;48.384;8.984;2023-04-01T07:18:30;7.10;99.90
9371;DHT22;4725;48.384;8.984;2023-04-01T07:20:59;7.10;99.90
9371;DHT22;4725;48.384;8.984;2023-04-01T07:23:31;7.10;99.90
9371;DHT22;4725;48.384;8.984;2023-04-01T07:26:00;7.20;99.90
9371;DHT22;4725;48.384;8.984;2023-04-01T07:28:31;7.30;99.90
9371;DHT22;4725;48.384;8.984;2023-04-01T07:31:09;7.30;99.90
9371;DHT22;4725;48.384;8.984;2023-04-01T07:33:43;7.30;99.90
9371;DHT22;4725;48.384;8.984;2023-04-01T07:36:17;7.40;99.90
9371;DHT22;4725;48.384;8.984;2023-04-01T07:38:58;7.40;99.90
9371;DHT22;4725;48.384;8.984;2023-04-01T07:41:35;7.40;99.90
9371;DHT22;4725;48.384;8.984;2023-04-01T07:44:10;7.50;99.90
9371;DHT22;4725;48.384;8.984;2023-04-01T07:46:53;7.50;99.90
9371;DHT22;4725;48.384;8.984;2023-04-01T07:49:27;7.50;99.90
9371;DHT22;4725;48.384;8.984;2023-04-01T07:52:00;7.50;99.90
9371;DHT22;4725;48.384;8.984;2023-04-01T07:54:35;7.50;99.90
9371;DHT22;4725;48.384;8.984;2023-04-01T07:57:09;7.50;99.90
9371;DHT22;4725;48.384;8.984;2023-04-01T07:59:45;7.50;99.90
9371;DHT22;4725;48.384;8.984;2023-04-01T08:02:25;7.50;99.90
9371;DHT22;4725;48.384;8.984;2023-04-01T08:05:00;7.50;99.90
9371;DHT22;4725;48.384;8.984;2023-04-01T08:07:37;7.60;99.90
9371;DHT22;4725;48.384;8.984;2023-04-01T08:10:13;7.60;99.90
9371;DHT22;4725;48.384;8.984;2023-04-01T08:12:51;7.60;99.90
9371;DHT22;4725;48.384;8.984;2023-04-01T08:15:25;7.60;99.90
9371;DHT22;4725;48.384;8.984;2023-04-01T08:18:11;7.60;99.90
9371;DHT22;4725;48.384;8.984;2023-04-01T08:20:41;7.70;99.90
9371;DHT22;4725;48.384;8.984;2023-04-01T08:23:14;7.70;99.90
9371;DHT22;4725;48.384;8.984;2023-04-01T08:25:48;7.70;99.90
9371;DHT22;4725;48.384;8.984;2023-04-01T08:28:21;7.70;99.90
9371;DHT22;4725;48.384;8.984;2023-04-01T08:30:53;7.70;99.90
9371;DHT22;4725;48.384;8.984;2023-04-01T08:33:25;7.70;99.90
9371;DHT22;4725;48.384;8.984;2023-04-01T08:35:56;7.70;99.90
9371;DHT22;4725;48.384;8.984;2023-04-01T08:38:28;7.70;99.90
9371;DHT22;4725;48.384;8.984;2023-04-01T08:41:05;7.70;99.90
9371;DHT22;4725;48.384;8.984;2023-04-01T08:44:04;7.70;99.90
9371;DHT22;4725;48.384;8.984;2023-04-01T08:47:07;7.80;99.90
9371;DHT22;4725;48.384;8.984;2023-04-01T08:52:35;7.80;99.90
9371;DHT22;4725;48.384;8.984;2023-04-01T08:58:17;7.70;99.90
9371;DHT22;4725;48.384;8.984;2023-04-01T09:00:51;7.50;99.90
9371;DHT22;4725;48.384;8.984;2023-04-01T09:03:43;7.50;99.90
9371;DHT22;4725;48.384;8.984;2023-04-01T09:06:35;7.50;99.90
9371;DHT22;4725;48.384;8.984;2023-04-01T09:12:39;7.70;99.90
9371;DHT22;4725;48.384;8.984;2023-04-01T09:15:29;7.70;99.90
9371;DHT22;4725;48.384;8.984;2023-04-01T09:18:24;7.60;99.90
9371;DHT22;4725;48.384;8.984;2023-04-01T09:24:20;7.60;99.90
9371;DHT22;4725;48.384;8.984;2023-04-01T09:27:10;7.50;99.90
9371;DHT22;4725;48.384;8.984;2023-04-01T09:36:15;7.30;99.90
9371;DHT22;4725;48.384;8.984;2023-04-01T09:38:56;7.40;99.90
9371;DHT22;4725;48.384;8.984;2023-04-01T09:41:29;7.40;99.90
9371;DHT22;4725;48.384;8.984;2023-04-01T09:44:01;7.30;99.90
9371;DHT22;4725;48.384;8.984;2023-04-01T09:46:40;7.40;99.90
9371;DHT22;4725;48.384;8.984;2023-04-01T09:49:32;7.40;99.90
9371;DHT22;4725;48.384;8.984;2023-04-01T09:52:11;7.40;99.90
9371;DHT22;4725;48.384;8.984;2023-04-01T09:54:54;7.40;99.90
9371;DHT22;4725;48.384;8.984;2023-04-01T10:00:45;7.40;99.90
9371;DHT22;4725;48.384;8.984;2023-04-01T10:06:54;7.20;99.90
9371;DHT22;4725;48.384;8.984;2023-04-01T10:15:52;7.10;99.90
9371;DHT22;4725;48.384;8.984;2023-04-01T10:21:35;7.10;99.90
9371;DHT22;4725;48.384;8.984;2023-04-01T10:27:25;8.70;99.90
9371;DHT22;4725;48.384;8.984;2023-04-01T10:30:23;7.10;99.90
9371;DHT22;4725;48.384;8.984;2023-04-01T10:36:44;7.30;99.90
9371;DHT22;4725;48.384;8.984;2023-04-01T10:39:37;7.30;99.90
9371;DHT22;4725;48.384;8.984;2023-04-01T10:48:21;7.40;99.90
9371;DHT22;4725;48.384;8.984;2023-04-01T10:51:10;7.50;99.90
9371;DHT22;4725;48.384;8.984;2023-04-01T10:53:49;7.50;99.90
9371;DHT22;4725;48.384;8.984;2023-04-01T10:56:42;7.30;99.90
9371;DHT22;4725;48.384;8.984;2023-04-01T11:05:39;7.50;99.90
9371;DHT22;4725;48.384;8.984;2023-04-01T11:08:38;7.40;99.90
9371;DHT22;4725;48.384;8.984;2023-04-01T11:11:55;7.50;99.90
9371;DHT22;4725;48.384;8.984;2023-04-01T11:14:48;7.70;99.90
9371;DHT22;4725;48.384;8.984;2023-04-01T11:20:44;7.70;99.90
9371;DHT22;4725;48.384;8.984;2023-04-01T11:23:43;7.60;99.90
9371;DHT22;4725;48.384;8.984;2023-04-01T11:26:25;7.60;99.90
9371;DHT22;4725;48.384;8.984;2023-04-01T11:32:20;7.50;99.90
9371;DHT22;4725;48.384;8.984;2023-04-01T11:35:20;7.30;99.90
9371;DHT22;4725;48.384;8.984;2023-04-01T11:37:58;7.30;99.90
9371;DHT22;4725;48.384;8.984;2023-04-01T11:40:35;7.40;99.90
9371;DHT22;4725;48.384;8.984;2023-04-01T11:43:10;7.50;99.90
9371;DHT22;4725;48.384;8.984;2023-04-01T11:45:45;7.50;99.90
9371;DHT22;4725;48.384;8.984;2023-04-01T11:48:41;7.50;99.90
9371;DHT22;4725;48.384;8.984;2023-04-01T11:51:44;7.60;99.90
9371;DHT22;4725;48.384;8.984;2023-04-01T11:54:29;7.70;99.90
9371;DHT22;4725;48.384;8.984;2023-04-01T11:57:10;7.70;99.90
9371;DHT22;4725;48.384;8.984;2023-04-01T12:02:53;7.70;99.90
9371;DHT22;4725;48.384;8.984;2023-04-01T12:05:38;7.80;99.90
9371;DHT22;4725;48.384;8.984;2023-04-01T12:08:25;7.80;99.90
9371;DHT22;4725;48.384;8.984;2023-04-01T12:11:03;7.70;99.90
9371;DHT22;4725;48.384;8.984;2023-04-01T12:13:39;7.80;99.90
9371;DHT22;4725;48.384;8.984;2023-04-01T12:16:29;7.90;99.90
9371;DHT22;4725;48.384;8.984;2023-04-01T12:19:03;7.90;99.90
9371;DHT22;4725;48.384;8.984;2023-04-01T12:21:36;7.90;99.90
9371;DHT22;4725;48.384;8.984;2023-04-01T12:27:06;8.00;99.90
9371;DHT22;4725;48.384;8.984;2023-04-01T12:29:49;8.10;99.90
9371;DHT22;4725;48.384;8.984;2023-04-01T12:32:29;8.10;99.90
9371;DHT22;4725;48.384;8.984;2023-04-01T12:35:10;8.10;99.90
9371;DHT22;4725;48.384;8.984;2023-04-01T12:37:45;7.90;99.90
9371;DHT22;4725;48.384;8.984;2023-04-01T12:40:24;7.70;99.90
9371;DHT22;4725;48.384;8.984;2023-04-01T12:43:15;7.70;99.90
9371;DHT22;4725;48.384;8.984;2023-04-01T12:45:53;7.80;99.90
9371;DHT22;4725;48.384;8.984;2023-04-01T13:00:48;8.90;99.90
9371;DHT22;4725;48.384;8.984;2023-04-01T13:03:52;9.20;99.90
9371;DHT22;4725;48.384;8.984;2023-04-01T13:06:32;9.50;99.90
9371;DHT22;4725;48.384;8.984;2023-04-01T13:09:13;9.50;99.90
9371;DHT22;4725;48.384;8.984;2023-04-01T13:11:54;9.10;99.90
9371;DHT22;4725;48.384;8.984;2023-04-01T13:14:35;9.70;99.90
9371;DHT22;4725;48.384;8.984;2023-04-01T13:17:14;9.40;99.90
9371;DHT22;4725;48.384;8.984;2023-04-01T13:19:48;9.10;99.90
9371;DHT22;4725;48.384;8.984;2023-04-01T13:22:22;9.10;99.90
9371;DHT22;4725;48.384;8.984;2023-04-01T13:24:55;8.90;99.90
9371;DHT22;4725;48.384;8.984;2023-04-01T13:27:29;8.70;99.90
9371;DHT22;4725;48.384;8.984;2023-04-01T13:30:10;8.60;99.90
9371;DHT22;4725;48.384;8.984;2023-04-01T13:32:46;8.80;99.90
9371;DHT22;4725;48.384;8.984;2023-04-01T13:35:20;8.90;99.90
9371;DHT22;4725;48.384;8.984;2023-04-01T13:38:09;9.10;99.90
9371;DHT22;4725;48.384;8.984;2023-04-01T13:40:49;9.10;99.90
9371;DHT22;4725;48.384;8.984;2023-04-01T13:43:21;9.10;99.90
9371;DHT22;4725;48.384;8.984;2023-04-01T13:46:11;9.00;99.90
9371;DHT22;4725;48.384;8.984;2023-04-01T13:52:04;9.20;99.90
9371;DHT22;4725;48.384;8.984;2023-04-01T13:54:57;9.30;99.90
9371;DHT22;4725;48.384;8.984;2023-04-01T13:57:42;9.10;99.90
9371;DHT22;4725;48.384;8.984;2023-04-01T14:00:22;9.10;99.90
9371;DHT22;4725;48.384;8.984;2023-04-01T14:03:02;8.40;99.90
9371;DHT22;4725;48.384;8.984;2023-04-01T14:05:50;9.00;99.90
9371;DHT22;4725;48.384;8.984;2023-04-01T14:08:29;9.00;99.90
9371;DHT22;4725;48.384;8.984;2023-04-01T14:11:10;9.00;99.90
9371;DHT22;4725;48.384;8.984;2023-04-01T14:13:44;9.20;99.90
9371;DHT22;4725;48.384;8.984;2023-04-01T14:16:32;9.30;99.90
9371;DHT22;4725;48.384;8.984;2023-04-01T14:19:11;9.30;99.90
9371;DHT22;4725;48.384;8.984;2023-04-01T14:21:53;9.10;99.90
9371;DHT22;4725;48.384;8.984;2023-04-01T14:24:36;9.30;99.90
9371;DHT22;4725;48.384;8.984;2023-04-01T14:27:26;9.20;99.90
9371;DHT22;4725;48.384;8.984;2023-04-01T14:30:07;9.30;99.90
9371;DHT22;4725;48.384;8.984;2023-04-01T14:32:42;9.20;99.90
9371;DHT22;4725;48.384;8.984;2023-04-01T14:35:33;9.20;99.90
9371;DHT22;4725;48.384;8.984;2023-04-01T14:41:15;9.20;99.90
9371;DHT22;4725;48.384;8.984;2023-04-01T14:44:05;9.20;99.90
9371;DHT22;4725;48.384;8.984;2023-04-01T14:47:15;9.10;99.90
9371;DHT22;4725;48.384;8.984;2023-04-01T14:49:47;9.60;99.90
9371;DHT22;4725;48.384;8.984;2023-04-01T14:52:17;9.30;99.90
9371;DHT22;4725;48.384;8.984;2023-04-01T14:54:49;9.30;99.90
9371;DHT22;4725;48.384;8.984;2023-04-01T14:57:23;9.40;99.90
9371;DHT22;4725;48.384;8.984;2023-04-01T14:59:53;9.40;99.90
9371;DHT22;4725;48.384;8.984;2023-04-01T15:02:50;9.50;99.90
9371;DHT22;4725;48.384;8.984;2023-04-01T15:05:31;9.40;99.90
9371;DHT22;4725;48.384;8.984;2023-04-01T15:08:08;9.30;99.90
9371;DHT22;4725;48.384;8.984;2023-04-01T15:10:58;9.30;99.90
9371;DHT22;4725;48.384;8.984;2023-04-01T15:14:07;9.30;99.90
9371;DHT22;4725;48.384;8.984;2023-04-01T15:16:45;9.30;99.90
9371;DHT22;4725;48.384;8.984;2023-04-01T15:19:19;9.30;99.90
9371;DHT22;4725;48.384;8.984;2023-04-01T15:22:03;9.40;99.90
9371;DHT22;4725;48.384;8.984;2023-04-01T15:24:41;9.40;99.90
9371;DHT22;4725;48.384;8.984;2023-04-01T15:27:29;9.50;99.90
9371;DHT22;4725;48.384;8.984;2023-04-01T15:33:17;9.60;99.90
9371;DHT22;4725;48.384;8.984;2023-04-01T15:35:51;9.60;99.90
9371;DHT22;4725;48.384;8.984;2023-04-01T15:38:29;9.60;99.90
9371;DHT22;4725;48.384;8.984;2023-04-01T15:41:03;9.40;99.90
9371;DHT22;4725;48.384;8.984;2023-04-01T15:43:40;9.40;99.90
9371;DHT22;4725;48.384;8.984;2023-04-01T15:46:24;9.40;99.90
9371;DHT22;4725;48.384;8.984;2023-04-01T15:49:03;9.30;99.90
9371;DHT22;4725;48.384;8.984;2023-04-01T15:54:47;9.20;99.90
9371;DHT22;4725;48.384;8.984;2023-04-01T15:57:23;9.10;99.90
9371;DHT22;4725;48.384;8.984;2023-04-01T16:00:25;9.20;99.90
9371;DHT22;4725;48.384;8.984;2023-04-01T16:03:15;9.10;99.90
9371;DHT22;4725;48.384;8.984;2023-04-01T16:06:02;9.10;99.90
9371;DHT22;4725;48.384;8.984;2023-04-01T16:08:48;9.00;99.90
9371;DHT22;4725;48.384;8.984;2023-04-01T16:11:24;9.10;99.90
9371;DHT22;4725;48.384;8.984;2023-04-01T16:14:03;9.10;99.90
9371;DHT22;4725;48.384;8.984;2023-04-01T16:16:45;9.20;99.90
9371;DHT22;4725;48.384;8.984;2023-04-01T16:19:36;9.20;99.90
9371;DHT22;4725;48.384;8.984;2023-04-01T16:22:07;9.20;99.90
9371;DHT22;4725;48.384;8.984;2023-04-01T16:24:38;9.30;99.90
9371;DHT22;4725;48.384;8.984;2023-04-01T16:27:13;9.30;99.90
9371;DHT22;4725;48.384;8.984;2023-04-01T16:29:46;9.30;99.90
9371;DHT22;4725;48.384;8.984;2023-04-01T16:32:33;9.10;99.90
9371;DHT22;4725;48.384;8.984;2023-04-01T16:35:24;9.30;99.90
9371;DHT22;4725;48.384;8.984;2023-04-01T16:37:58;9.10;99.90
9371;DHT22;4725;48.384;8.984;2023-04-01T16:40:43;9.10;99.90
9371;DHT22;4725;48.384;8.984;2023-04-01T16:43:16;9.00;99.90
9371;DHT22;4725;48.384;8.984;2023-04-01T16:45:53;9.00;99.90
9371;DHT22;4725;48.384;8.984;2023-04-01T16:48:25;9.00;99.90
9371;DHT22;4725;48.384;8.984;2023-04-01T16:50:59;9.00;99.90
9371;DHT22;4725;48.384;8.984;2023-04-01T16:53:36;8.90;99.90
9371;DHT22;4725;48.384;8.984;2023-04-01T16:56:11;8.90;99.90
9371;DHT22;4725;48.384;8.984;2023-04-01T16:58:42;8.90;99.90
9371;DHT22;4725;48.384;8.984;2023-04-01T17:01:13;8.90;99.90
9371;DHT22;4725;48.384;8.984;2023-04-01T17:03:45;8.90;99.90
9371;DHT22;4725;48.384;8.984;2023-04-01T17:06:23;8.90;99.90
9371;DHT22;4725;48.384;8.984;2023-04-01T17:09:14;8.90;99.90
9371;DHT22;4725;48.384;8.984;2023-04-01T17:11:52;8.90;99.90
9371;DHT22;4725;48.384;8.984;2023-04-01T17:14:27;8.90;99.90
9371;DHT22;4725;48.384;8.984;2023-04-01T17:17:19;8.90;99.90
9371;DHT22;4725;48.384;8.984;2023-04-01T17:19:59;8.80;99.90
9371;DHT22;4725;48.384;8.984;2023-04-01T17:22:36;8.80;99.90
9371;DHT22;4725;48.384;8.984;2023-04-01T17:25:20;8.70;99.90
9371;DHT22;4725;48.384;8.984;2023-04-01T17:27:55;8.60;99.90
9371;DHT22;4725;48.384;8.984;2023-04-01T17:30:30;8.60;99.90
9371;DHT22;4725;48.384;8.984;2023-04-01T17:35:51;8.50;99.90
9371;DHT22;4725;48.384;8.984;2023-04-01T17:38:37;8.40;99.90
9371;DHT22;4725;48.384;8.984;2023-04-01T17:41:11;8.40;99.90
9371;DHT22;4725;48.384;8.984;2023-04-01T17:43:47;8.30;99.90
9371;DHT22;4725;48.384;8.984;2023-04-01T17:46:27;8.30;99.90
9371;DHT22;4725;48.384;8.984;2023-04-01T17:49:02;8.30;99.90
9371;DHT22;4725;48.384;8.984;2023-04-01T17:51:38;8.30;99.90
9371;DHT22;4725;48.384;8.984;2023-04-01T17:54:21;8.30;99.90
9371;DHT22;4725;48.384;8.984;2023-04-01T17:56:59;8.30;99.90
9371;DHT22;4725;48.384;8.984;2023-04-01T17:59:36;8.30;99.90
9371;DHT22;4725;48.384;8.984;2023-04-01T18:02:15;8.20;99.90
9371;DHT22;4725;48.384;8.984;2023-04-01T18:04:58;8.20;99.90
9371;DHT22;4725;48.384;8.984;2023-04-01T18:10:35;8.10;99.90
9371;DHT22;4725;48.384;8.984;2023-04-01T18:13:39;8.10;99.90
9371;DHT22;4725;48.384;8.984;2023-04-01T18:16:26;8.00;99.90
9371;DHT22;4725;48.384;8.984;2023-04-01T18:19:03;8.00;99.90
9371;DHT22;4725;48.384;8.984;2023-04-01T18:21:41;7.90;99.90
9371;DHT22;4725;48.384;8.984;2023-04-01T18:24:18;7.80;99.90
9371;DHT22;4725;48.384;8.984;2023-04-01T18:26:51;7.80;99.90
9371;DHT22;4725;48.384;8.984;2023-04-01T18:29:33;7.80;99.90
9371;DHT22;4725;48.384;8.984;2023-04-01T18:32:16;7.80;99.90
9371;DHT22;4725;48.384;8.984;2023-04-01T18:34:57;7.70;99.90
9371;DHT22;4725;48.384;8.984;2023-04-01T18:37:29;7.60;99.90
9371;DHT22;4725;48.384;8.984;2023-04-01T18:40:04;7.60;99.90
9371;DHT22;4725;48.384;8.984;2023-04-01T18:42:41;7.60;99.90
9371;DHT22;4725;48.384;8.984;2023-04-01T18:45:17;7.60;99.90
9371;DHT22;4725;48.384;8.984;2023-04-01T18:47:54;7.60;99.90
9371;DHT22;4725;48.384;8.984;2023-04-01T18:50:28;7.50;99.90
9371;DHT22;4725;48.384;8.984;2023-04-01T18:52:59;7.50;99.90
9371;DHT22;4725;48.384;8.984;2023-04-01T18:55:36;7.30;99.90
9371;DHT22;4725;48.384;8.984;2023-04-01T18:58:37;7.30;99.90
9371;DHT22;4725;48.384;8.984;2023-04-01T19:01:17;7.30;99.90
9371;DHT22;4725;48.384;8.984;2023-04-01T19:03:57;7.30;99.90
9371;DHT22;4725;48.384;8.984;2023-04-01T19:06:30;7.00;99.90
9371;DHT22;4725;48.384;8.984;2023-04-01T19:09:15;7.00;99.90
9371;DHT22;4725;48.384;8.984;2023-04-01T19:11:48;7.00;99.90
9371;DHT22;4725;48.384;8.984;2023-04-01T19:14:25;7.00;99.90
9371;DHT22;4725;48.384;8.984;2023-04-01T19:17:00;6.80;99.90
9371;DHT22;4725;48.384;8.984;2023-04-01T19:19:43;6.80;99.90
9371;DHT22;4725;48.384;8.984;2023-04-01T19:22:21;6.70;99.90
9371;DHT22;4725;48.384;8.984;2023-04-01T19:27:51;6.60;99.90
9371;DHT22;4725;48.384;8.984;2023-04-01T19:30:41;6.60;99.90
9371;DHT22;4725;48.384;8.984;2023-04-01T19:33:28;6.60;99.90
9371;DHT22;4725;48.384;8.984;2023-04-01T19:36:06;6.60;99.90
9371;DHT22;4725;48.384;8.984;2023-04-01T19:38:38;6.60;99.90